Time;durP1;ratioP1;P1;durP2;ratioP2;P2;SDS_P1;SDS_P2;PMS_P1;PMS_P2;Temp;Humidity;BMP_temperature;BMP_pressure;BME280_temperature;BME280_humidity;BME280_pressure;Samples;Min_cycle;Max_cycle;Signal;HPM_P1;HPM_P2
2022/03/20 00:02:17;;;;;;;;;;;;;;;;;;5037156;28;20024;-49
2022/03/20 00:04:42;;;;;;;;;;;;;;;;;;5036782;28;19964;-47
2022/03/20 00:07:11;;;;;;;;;;;;;;;;;;5037024;28;19967;-48
2022/03/20 00:09:36;;;;;;;;;;;;;;;;;;5037237;28;19909;-48
2022/03/20 00:12:01;;;;;;;;;;;;;;;;;;5036950;28;20023;-49
2022/03/20 00:14:26;;;;;;;;;;;;;;;;;;5037005;28;20486;-47
2022/03/20 00:16:51;;;;;;;;;;;;;;;;;;5037037;28;19916;-47
2022/03/20 00:19:16;;;;;;;;;;;;;;;;;;5036794;28;19931;-48
2022/03/20 00:21:42;;;;;;;;;;;;;;;;;;5036962;28;20403;-47
2022/03/20 00:24:07;;;;;;;;;;;;;;;;;;5036992;28;20118;-50
2022/03/20 00:26:33;;;;;;;;;;;;;;;;;;5035041;28;19945;-49
2022/03/20 00:28:59;;;;;;;;;;;;;;;;;;5036737;28;19913;-49
2022/03/20 00:31:25;;;;;;;;;;;;;;;;;;5036630;28;19963;-48
2022/03/20 00:33:50;;;;;;;;;;;;;;;;;;5036651;28;19936;-47
2022/03/20 00:36:15;;;;;;;;;;;;;;;;;;5036643;28;19921;-49
2022/03/20 00:38:40;;;;;;;;;;;;;;;;;;5036676;28;19963;-47
2022/03/20 00:41:05;;;;;;;;;;;;;;;;;;5036551;28;19909;-51
2022/03/20 00:43:31;;;;;;;;;;;;;;;;;;5036537;28;20340;-47
2022/03/20 00:45:56;;;;;;;;;;;;;;;;;;5036451;28;19948;-47
2022/03/20 00:48:21;;;;;;;;;;;;;;;;;;5036397;28;19910;-47
2022/03/20 00:50:46;;;;;;;;;;;;;;;;;;5042829;22;20505;-48
2022/03/20 00:53:11;;;;;;;;;;;;;;;;;;5036453;28;19909;-50
2022/03/20 00:55:37;;;;;;;;;;;;;;;;;;5035304;28;19967;-48
2022/03/20 00:58:02;;;;;;;;;;;;;;;;;;5036315;28;19905;-47
2022/03/20 01:00:27;;;;;;;;;;;;;;;;;;5036102;28;20311;-47
2022/03/20 01:02:52;;;;;;;;;;;;;;;;;;5035985;28;19967;-49
2022/03/20 01:05:17;;;;;;;;;;;;;;;;;;5036040;28;19913;-47
2022/03/20 01:07:45;;;;;;;;;;;;;;;;;;5036099;28;20372;-47
2022/03/20 01:10:11;;;;;;;;;;;;;;;;;;5036147;28;19913;-47
2022/03/20 01:12:38;;;;;;;;;;;;;;;;;;5035958;28;19916;-49
2022/03/20 01:15:03;;;;;;;;;;;;;;;;;;5035946;28;19951;-47
2022/03/20 01:17:28;;;;;;;;;;;;;;;;;;5035931;28;20586;-48
2022/03/20 01:19:53;;;;;;;;;;;;;;;;;;5035907;28;19917;-46
2022/03/20 01:22:18;;;;;;;;;;;;;;;;;;5035981;28;20322;-47
2022/03/20 01:24:43;;;;;;;;;;;;;;;;;;5035124;28;20028;-47
2022/03/20 01:27:09;;;;;;;;;;;;;;;;;;5035166;28;19913;-48
2022/03/20 01:29:34;;;;;;;;;;;;;;;;;;5035715;28;19916;-47
2022/03/20 01:31:59;;;;;;;;;;;;;;;;;;5035735;28;19963;-48
2022/03/20 01:34:26;;;;;;;;;;;;;;;;;;5035582;28;19909;-47
2022/03/20 01:36:52;;;;;;;;;;;;;;;;;;5035701;28;20361;-47
2022/03/20 01:39:17;;;;;;;;;;;;;;;;;;5035499;28;19913;-48
2022/03/20 01:41:46;;;;;;;;;;;;;;;;;;5034375;28;19920;-49
2022/03/20 01:44:11;;;;;;;;;;;;;;;;;;5035385;28;19916;-46
2022/03/20 01:46:36;;;;;;;;;;;;;;;;;;5035486;28;19909;-49
2022/03/20 01:49:01;;;;;;;;;;;;;;;;;;5035368;28;19913;-47
2022/03/20 01:54:10;;;;;;;;;;;;;;;;;;5034900;28;19931;-47
2022/03/20 01:56:35;;;;;;;;;;;;;;;;;;5034982;28;19917;-46
2022/03/20 01:59:03;;;;;;;;;;;;;;;;;;5035179;28;19909;-48
2022/03/20 02:01:28;;;;;;;;;;;;;;;;;;5034669;28;19952;-49
2022/03/20 02:03:54;;;;;;;;;;;;;;;;;;5035008;28;19916;-49
2022/03/20 02:06:19;;;;;;;;;;;;;;;;;;5034921;28;20249;-46
2022/03/20 02:08:44;;;;;;;;;;;;;;;;;;5034924;28;19916;-49
2022/03/20 02:11:09;;;;;;;;;;;;;;;;;;5034887;28;20370;-49
2022/03/20 02:13:34;;;;;;;;;;;;;;;;;;5035030;28;19954;-47
2022/03/20 02:15:59;;;;;;;;;;;;;;;;;;5034980;28;20417;-47
2022/03/20 02:18:24;;;;;;;;;;;;;;;;;;5035136;28;20003;-47
2022/03/20 02:20:50;;;;;;;;;;;;;;;;;;5034563;28;20011;-47
2022/03/20 02:23:15;;;;;;;;;;;;;;;;;;5034702;28;19913;-47
2022/03/20 02:25:40;;;;;;;;;;;;;;;;;;5033433;28;19963;-47
2022/03/20 02:28:05;;;;;;;;;;;;;;;;;;5034649;28;19967;-47
2022/03/20 02:30:30;;;;;;;;;;;;;;;;;;5034288;28;19917;-49
2022/03/20 02:32:56;;;;;;;;;;;;;;;;;;5034658;28;19996;-48
2022/03/20 02:35:21;;;;;;;;;;;;;;;;;;5034567;28;19910;-48
2022/03/20 02:37:46;;;;;;;;;;;;;;;;;;5034757;28;19952;-48
2022/03/20 02:40:11;;;;;;;;;;;;;;;;;;5034454;28;19959;-50
2022/03/20 02:42:37;;;;;;;;;;;;;;;;;;5034664;28;19912;-49
2022/03/20 02:45:03;;;;;;;;;;;;;;;;;;5034294;28;20289;-48
2022/03/20 02:47:29;;;;;;;;;;;;;;;;;;5034660;28;19968;-47
2022/03/20 02:49:54;;;;;;;;;;;;;;;;;;5034580;28;20265;-47
2022/03/20 02:52:19;;;;;;;;;;;;;;;;;;5034569;28;20315;-48
2022/03/20 02:54:44;;;;;;;;;;;;;;;;;;5034177;28;20312;-47
2022/03/20 02:57:09;;;;;;;;;;;;;;;;;;5033725;28;19999;-48
2022/03/20 02:59:35;;;;;;;;;;;;;;;;;;5034320;28;19905;-47
2022/03/20 03:02:00;;;;;;;;;;;;;;;;;;5034392;28;19909;-48
2022/03/20 03:04:25;;;;;;;;;;;;;;;;;;5034234;28;19909;-48
2022/03/20 03:06:50;;;;;;;;;;;;;;;;;;5034360;28;19909;-48
2022/03/20 03:11:59;;;;;;;;;;;;;;;;;;5035204;28;19944;-47
2022/03/20 03:17:07;;;;;;;;;;;;;;;;;;5038068;28;19920;-47
2022/03/20 03:19:32;;;;;;;;;;;;;;;;;;5038084;28;20272;-50
2022/03/20 03:22:01;;;;;;;;;;;;;;;;;;5038154;28;19909;-47
2022/03/20 03:24:26;;;;;;;;;;;;;;;;;;5037945;28;19909;-48
2022/03/20 03:26:51;;;;;;;;;;;;;;;;;;5037124;28;19920;-46
2022/03/20 03:29:16;;;;;;;;;;;;;;;;;;5038215;28;20333;-47
2022/03/20 03:31:41;;;;;;;;;;;;;;;;;;5037853;28;19909;-47
2022/03/20 03:36:50;;;;;;;;;;;;;;;;;;5037860;28;20268;-47
2022/03/20 03:39:15;;;;;;;;;;;;;;;;;;5037929;28;19999;-47
2022/03/20 03:41:41;;;;;;;;;;;;;;;;;;5037790;28;20320;-47
2022/03/20 03:44:06;;;;;;;;;;;;;;;;;;5037592;28;19917;-47
2022/03/20 03:46:32;;;;;;;;;;;;;;;;;;5037502;28;20275;-46
2022/03/20 03:48:57;;;;;;;;;;;;;;;;;;5037568;28;20357;-47
2022/03/20 03:51:22;;;;;;;;;;;;;;;;;;5037154;28;19925;-46
2022/03/20 03:53:48;;;;;;;;;;;;;;;;;;5037197;28;19961;-48
2022/03/20 03:56:13;;;;;;;;;;;;;;;;;;5036854;28;19963;-47
2022/03/20 03:58:38;;;;;;;;;;;;;;;;;;5037380;28;19909;-47
2022/03/20 04:01:03;;;;;;;;;;;;;;;;;;5037304;28;19909;-46
2022/03/20 04:03:28;;;;;;;;;;;;;;;;;;5037222;28;20367;-46
2022/03/20 04:05:54;;;;;;;;;;;;;;;;;;5037090;28;19913;-47
2022/03/20 04:08:20;;;;;;;;;;;;;;;;;;5037356;28;19909;-47
2022/03/20 04:10:45;;;;;;;;;;;;;;;;;;5037387;28;19913;-46
2022/03/20 04:13:10;;;;;;;;;;;;;;;;;;5037240;28;20043;-48
2022/03/20 04:15:36;;;;;;;;;;;;;;;;;;5037092;28;20382;-49
2022/03/20 04:18:01;;;;;;;;;;;;;;;;;;5037094;28;19913;-47
2022/03/20 04:20:26;;;;;;;;;;;;;;;;;;5036557;28;19959;-46
2022/03/20 04:25:35;;;;;;;;;;;;;;;;;;5034921;28;19987;-47
2022/03/20 04:28:00;;;;;;;;;;;;;;;;;;5036673;28;19913;-47
2022/03/20 04:30:26;;;;;;;;;;;;;;;;;;5036767;28;20319;-46
2022/03/20 04:32:51;;;;;;;;;;;;;;;;;;5036524;28;19991;-49
2022/03/20 04:35:16;;;;;;;;;;;;;;;;;;5036575;28;19913;-47
2022/03/20 04:37:41;;;;;;;;;;;;;;;;;;5036590;28;19963;-49
2022/03/20 04:40:06;;;;;;;;;;;;;;;;;;5036539;28;20403;-47
2022/03/20 04:42:31;;;;;;;;;;;;;;;;;;5035175;28;20279;-47
2022/03/20 04:44:58;;;;;;;;;;;;;;;;;;5036416;28;20237;-48
2022/03/20 04:58:32;;;;;;;;;;;;;;;;;;5036774;28;19987;-46
2022/03/20 05:00:57;;;;;;;;;;;;;;;;;;5036320;28;19996;-47
2022/03/20 05:03:23;;;;;;;;;;;;;;;;;;5036192;28;19948;-49
2022/03/20 05:05:48;;;;;;;;;;;;;;;;;;5036119;28;19967;-47
2022/03/20 05:08:13;;;;;;;;;;;;;;;;;;5036157;28;19909;-47
2022/03/20 05:13:33;;;;;;;;;;;;;;;;;;5014108;28;19909;-46
2022/03/20 05:15:58;;;;;;;;;;;;;;;;;;5014170;28;19913;-46
2022/03/20 05:18:23;;;;;;;;;;;;;;;;;;5014069;28;19936;-47
2022/03/20 05:20:49;;;;;;;;;;;;;;;;;;5013697;28;19995;-47
2022/03/20 05:23:14;;;;;;;;;;;;;;;;;;5016710;28;20006;-47
2022/03/20 05:25:39;;;;;;;;;;;;;;;;;;5035300;28;19914;-47
2022/03/20 05:28:04;;;;;;;;;;;;;;;;;;5035467;28;19917;-46
2022/03/20 05:30:30;;;;;;;;;;;;;;;;;;5035646;28;19909;-46
2022/03/20 05:32:55;;;;;;;;;;;;;;;;;;5035609;28;19931;-47
2022/03/20 05:35:20;;;;;;;;;;;;;;;;;;5034849;28;19909;-47
2022/03/20 05:37:45;;;;;;;;;;;;;;;;;;5035420;28;20364;-47
2022/03/20 05:40:10;;;;;;;;;;;;;;;;;;5035640;28;19917;-47
2022/03/20 05:42:38;;;;;;;;;;;;;;;;;;5035554;28;19916;-46
2022/03/20 05:45:03;;;;;;;;;;;;;;;;;;5035485;28;19913;-48
2022/03/20 05:47:29;;;;;;;;;;;;;;;;;;5035516;28;19919;-47
2022/03/20 05:49:54;;;;;;;;;;;;;;;;;;5034629;28;19955;-47
2022/03/20 05:52:21;;;;;;;;;;;;;;;;;;5034615;28;20145;-47
2022/03/20 05:54:46;;;;;;;;;;;;;;;;;;5035289;28;19909;-46
2022/03/20 05:59:56;;;;;;;;;;;;;;;;;;5035105;28;19915;-47
2022/03/20 06:02:21;;;;;;;;;;;;;;;;;;5035015;28;19909;-48
2022/03/20 06:04:46;;;;;;;;;;;;;;;;;;5035039;28;19913;-49
2022/03/20 06:07:11;;;;;;;;;;;;;;;;;;5035005;28;19909;-49
2022/03/20 06:09:36;;;;;;;;;;;;;;;;;;5035087;28;19916;-50
2022/03/20 06:12:01;;;;;;;;;;;;;;;;;;5033545;28;19917;-48
2022/03/20 06:14:26;;;;;;;;;;;;;;;;;;5034862;28;20012;-48
2022/03/20 06:16:51;;;;;;;;;;;;;;;;;;5034698;28;20475;-47
2022/03/20 06:19:17;;;;;;;;;;;;;;;;;;5033272;28;20387;-49
2022/03/20 06:21:42;;;;;;;;;;;;;;;;;;5034656;28;19915;-46
2022/03/20 06:24:07;;;;;;;;;;;;;;;;;;5034704;28;19932;-48
2022/03/20 06:26:33;;;;;;;;;;;;;;;;;;5033145;28;19965;-49
2022/03/20 06:28:59;;;;;;;;;;;;;;;;;;5034418;28;19920;-49
2022/03/20 06:31:24;;;;;;;;;;;;;;;;;;5034608;28;19909;-47
2022/03/20 06:33:49;;;;;;;;;;;;;;;;;;5034573;28;19910;-48
2022/03/20 06:36:15;;;;;;;;;;;;;;;;;;5034803;28;19915;-48
2022/03/20 06:38:40;;;;;;;;;;;;;;;;;;5034489;28;19909;-48
2022/03/20 06:41:06;;;;;;;;;;;;;;;;;;5034468;28;19909;-50
2022/03/20 06:43:31;;;;;;;;;;;;;;;;;;5034530;28;19909;-48
2022/03/20 06:45:56;;;;;;;;;;;;;;;;;;5034475;28;19913;-49
2022/03/20 06:48:21;;;;;;;;;;;;;;;;;;5039802;28;19913;-48
2022/03/20 06:50:46;;;;;;;;;;;;;;;;;;5040726;28;19921;-48
2022/03/20 06:53:11;;;;;;;;;;;;;;;;;;5041247;28;19916;-48
2022/03/20 06:55:36;;;;;;;;;;;;;;;;;;5040366;28;19916;-47
2022/03/20 06:58:02;;;;;;;;;;;;;;;;;;5040470;28;19917;-48
2022/03/20 07:00:28;;;;;;;;;;;;;;;;;;5040952;28;19916;-47
2022/03/20 07:02:53;;;;;;;;;;;;;;;;;;5040953;28;19967;-48
2022/03/20 07:05:18;;;;;;;;;;;;;;;;;;5040850;28;19917;-47
2022/03/20 07:07:43;;;;;;;;;;;;;;;;;;5040600;28;19910;-47
2022/03/20 07:10:09;;;;;;;;;;;;;;;;;;5040903;28;20430;-47
2022/03/20 07:12:34;;;;;;;;;;;;;;;;;;5040980;28;19916;-48
2022/03/20 07:14:59;;;;;;;;;;;;;;;;;;5041060;28;19971;-48
2022/03/20 07:17:24;;;;;;;;;;;;;;;;;;5040487;28;19952;-49
2022/03/20 07:19:49;;;;;;;;;;;;;;;;;;5040831;28;19963;-49
2022/03/20 07:22:14;;;;;;;;;;;;;;;;;;5040798;28;19912;-46
2022/03/20 07:24:42;;;;;;;;;;;;;;;;;;5040752;28;19916;-49
2022/03/20 07:29:51;;;;;;;;;;;;;;;;;;5040751;28;19916;-49
2022/03/20 07:32:16;;;;;;;;;;;;;;;;;;5040620;28;19909;-48
2022/03/20 07:34:43;;;;;;;;;;;;;;;;;;5040609;28;19913;-49
2022/03/20 07:37:09;;;;;;;;;;;;;;;;;;5040569;28;19945;-48
2022/03/20 07:39:34;;;;;;;;;;;;;;;;;;5040578;28;19944;-50
2022/03/20 07:41:59;;;;;;;;;;;;;;;;;;5040520;28;19963;-48
2022/03/20 07:44:24;;;;;;;;;;;;;;;;;;5040554;28;19916;-48
2022/03/20 07:46:52;;;;;;;;;;;;;;;;;;5040478;28;19923;-47
2022/03/20 07:49:17;;;;;;;;;;;;;;;;;;5040217;28;19940;-48
2022/03/20 07:51:42;;;;;;;;;;;;;;;;;;5040433;28;20446;-47
2022/03/20 07:54:07;;;;;;;;;;;;;;;;;;5040430;28;19963;-48
2022/03/20 07:56:35;;;;;;;;;;;;;;;;;;5039843;28;19948;-50
2022/03/20 07:59:00;;;;;;;;;;;;;;;;;;5037899;28;19952;-47
2022/03/20 08:01:26;;;;;;;;;;;;;;;;;;5037442;28;19935;-47
2022/03/20 08:03:51;;;;;;;;;;;;;;;;;;5037040;28;19916;-47
2022/03/20 08:06:16;;;;;;;;;;;;;;;;;;5037120;28;19920;-49
2022/03/20 08:08:42;;;;;;;;;;;;;;;;;;5036765;28;20301;-47
2022/03/20 08:11:08;;;;;;;;;;;;;;;;;;5037160;28;19921;-48
2022/03/20 08:13:33;;;;;;;;;;;;;;;;;;5037222;28;19906;-47
2022/03/20 08:15:58;;;;;;;;;;;;;;;;;;5037439;28;20002;-47
2022/03/20 08:18:26;;;;;;;;;;;;;;;;;;5036561;28;19914;-47
2022/03/20 08:20:51;;;;;;;;;;;;;;;;;;5034868;28;19921;-48
2022/03/20 08:23:16;;;;;;;;;;;;;;;;;;5037003;28;19914;-48
2022/03/20 08:25:42;;;;;;;;;;;;;;;;;;5035895;28;19975;-48
2022/03/20 08:28:09;;;;;;;;;;;;;;;;;;5036640;28;19975;-50
2022/03/20 08:30:34;;;;;;;;;;;;;;;;;;5036700;28;19952;-47
2022/03/20 08:32:59;;;;;;;;;;;;;;;;;;5035496;28;20368;-47
2022/03/20 08:35:25;;;;;;;;;;;;;;;;;;5036908;28;19910;-47
2022/03/20 08:37:50;;;;;;;;;;;;;;;;;;5035565;28;19913;-47
2022/03/20 08:40:15;;;;;;;;;;;;;;;;;;5036784;28;19952;-47
2022/03/20 08:42:40;;;;;;;;;;;;;;;;;;5036758;28;20040;-48
2022/03/20 08:45:06;;;;;;;;;;;;;;;;;;5036543;28;19913;-46
2022/03/20 08:47:32;;;;;;;;;;;;;;;;;;5036337;28;19913;-48
2022/03/20 08:49:57;;;;;;;;;;;;;;;;;;5036251;28;19917;-47
2022/03/20 08:52:22;;;;;;;;;;;;;;;;;;5036447;28;19920;-47
2022/03/20 08:54:48;;;;;;;;;;;;;;;;;;5036326;28;19910;-49
2022/03/20 08:57:15;;;;;;;;;;;;;;;;;;5035531;28;20004;-49
2022/03/20 08:59:40;;;;;;;;;;;;;;;;;;5036151;28;19955;-49
2022/03/20 09:02:05;;;;;;;;;;;;;;;;;;5036176;28;19913;-47
2022/03/20 09:04:30;;;;;;;;;;;;;;;;;;5036137;28;19963;-48
2022/03/20 09:06:55;;;;;;;;;;;;;;;;;;5036245;28;19909;-49
2022/03/20 09:09:20;;;;;;;;;;;;;;;;;;5035990;28;20272;-49
2022/03/20 09:11:47;;;;;;;;;;;;;;;;;;5035933;28;19924;-50
2022/03/20 09:14:12;;;;;;;;;;;;;;;;;;5036336;28;19916;-48
2022/03/20 09:19:21;;;;;;;;;;;;;;;;;;5036109;28;19916;-47
2022/03/20 09:21:46;;;;;;;;;;;;;;;;;;5035789;28;19909;-47
2022/03/20 09:24:11;;;;;;;;;;;;;;;;;;5036002;28;19909;-46
2022/03/20 09:26:36;;;;;;;;;;;;;;;;;;5034905;28;19965;-50
2022/03/20 09:29:01;;;;;;;;;;;;;;;;;;5035705;28;19917;-50
2022/03/20 09:31:27;;;;;;;;;;;;;;;;;;5035830;28;19917;-49
2022/03/20 09:33:52;;;;;;;;;;;;;;;;;;5035536;28;19920;-49
2022/03/20 09:36:17;;;;;;;;;;;;;;;;;;5035660;28;19913;-49
2022/03/20 09:38:42;;;;;;;;;;;;;;;;;;5035523;28;19913;-49
2022/03/20 09:41:08;;;;;;;;;;;;;;;;;;5035585;28;19909;-49
2022/03/20 09:43:33;;;;;;;;;;;;;;;;;;5035428;28;20378;-49
2022/03/20 09:45:58;;;;;;;;;;;;;;;;;;5035262;28;20015;-51
2022/03/20 09:48:23;;;;;;;;;;;;;;;;;;5035264;28;20000;-49
2022/03/20 09:50:48;;;;;;;;;;;;;;;;;;5033958;28;20012;-50
2022/03/20 09:53:13;;;;;;;;;;;;;;;;;;5035338;28;20000;-49
2022/03/20 09:55:38;;;;;;;;;;;;;;;;;;5034355;28;19971;-49
2022/03/20 09:58:04;;;;;;;;;;;;;;;;;;5034862;28;19958;-51
2022/03/20 10:00:30;;;;;;;;;;;;;;;;;;5034838;28;19936;-50
2022/03/20 10:02:55;;;;;;;;;;;;;;;;;;5034851;28;19920;-51
2022/03/20 10:05:21;;;;;;;;;;;;;;;;;;5034965;28;19917;-51
2022/03/20 10:07:46;;;;;;;;;;;;;;;;;;5035000;28;19909;-50
2022/03/20 10:10:11;;;;;;;;;;;;;;;;;;5035024;28;19952;-49
2022/03/20 10:12:36;;;;;;;;;;;;;;;;;;5035036;28;19910;-50
2022/03/20 10:15:02;;;;;;;;;;;;;;;;;;5034873;28;20348;-52
2022/03/20 10:17:28;;;;;;;;;;;;;;;;;;5034925;28;19913;-51
2022/03/20 10:19:53;;;;;;;;;;;;;;;;;;5034578;28;19917;-52
2022/03/20 10:22:18;;;;;;;;;;;;;;;;;;5033881;28;19909;-49
2022/03/20 10:24:43;;;;;;;;;;;;;;;;;;5034867;28;19909;-51
2022/03/20 10:27:08;;;;;;;;;;;;;;;;;;5033357;28;19917;-51
2022/03/20 10:29:33;;;;;;;;;;;;;;;;;;5034652;28;19995;-51
2022/03/20 10:31:58;;;;;;;;;;;;;;;;;;5034560;28;19913;-51
2022/03/20 10:34:23;;;;;;;;;;;;;;;;;;5034562;28;19916;-49
2022/03/20 10:36:48;;;;;;;;;;;;;;;;;;5034639;28;19913;-49
2022/03/20 10:39:19;;;;;;;;;;;;;;;;;;5034336;28;19917;-49
2022/03/20 10:41:45;;;;;;;;;;;;;;;;;;5034455;28;19909;-49
2022/03/20 10:44:10;;;;;;;;;;;;;;;;;;5034499;28;19909;-49
2022/03/20 10:46:35;;;;;;;;;;;;;;;;;;5034462;28;19919;-50
2022/03/20 10:49:00;;;;;;;;;;;;;;;;;;5034667;28;19916;-49
2022/03/20 10:51:26;;;;;;;;;;;;;;;;;;5034392;28;19928;-48
2022/03/20 10:53:51;;;;;;;;;;;;;;;;;;5034747;28;20008;-49
2022/03/20 10:56:16;;;;;;;;;;;;;;;;;;5033627;28;19921;-48
2022/03/20 10:58:41;;;;;;;;;;;;;;;;;;5034068;28;19960;-49
2022/03/20 11:01:08;;;;;;;;;;;;;;;;;;5034372;28;20368;-48
2022/03/20 11:03:33;;;;;;;;;;;;;;;;;;5034242;28;20333;-49
2022/03/20 11:05:58;;;;;;;;;;;;;;;;;;5034277;28;19920;-49
2022/03/20 11:08:26;;;;;;;;;;;;;;;;;;5034231;28;20387;-50
2022/03/20 11:10:51;;;;;;;;;;;;;;;;;;5034358;28;19916;-50
2022/03/20 11:13:17;;;;;;;;;;;;;;;;;;5034248;28;19913;-49
2022/03/20 11:15:42;;;;;;;;;;;;;;;;;;5034277;28;19909;-49
2022/03/20 11:18:07;;;;;;;;;;;;;;;;;;5034158;28;19944;-50
2022/03/20 11:20:32;;;;;;;;;;;;;;;;;;5033201;28;19913;-51
2022/03/20 11:22:59;;;;;;;;;;;;;;;;;;5034064;28;19920;-49
2022/03/20 11:25:24;;;;;;;;;;;;;;;;;;5033541;28;19928;-49
2022/03/20 11:27:49;;;;;;;;;;;;;;;;;;5034088;28;19909;-49
2022/03/20 11:30:14;;;;;;;;;;;;;;;;;;5034062;28;20000;-51
2022/03/20 11:32:39;;;;;;;;;;;;;;;;;;5033996;28;20055;-49
2022/03/20 11:35:05;;;;;;;;;;;;;;;;;;5036407;28;19956;-51
2022/03/20 11:37:30;;;;;;;;;;;;;;;;;;5037842;28;20364;-49
2022/03/20 11:39:55;;;;;;;;;;;;;;;;;;5037727;28;19948;-49
2022/03/20 11:42:20;;;;;;;;;;;;;;;;;;5037718;28;19986;-52
2022/03/20 11:44:45;;;;;;;;;;;;;;;;;;5037645;28;19927;-49
2022/03/20 11:47:10;;;;;;;;;;;;;;;;;;5037608;28;19909;-51
2022/03/20 11:49:35;;;;;;;;;;;;;;;;;;5037180;28;19928;-49
2022/03/20 11:52:03;;;;;;;;;;;;;;;;;;5037619;28;20416;-50
2022/03/20 11:54:29;;;;;;;;;;;;;;;;;;5037269;28;19909;-52
2022/03/20 11:56:54;;;;;;;;;;;;;;;;;;5037172;28;20356;-49
2022/03/20 11:59:19;;;;;;;;;;;;;;;;;;5037559;28;19909;-50
2022/03/20 12:01:44;;;;;;;;;;;;;;;;;;5037423;28;20304;-52
2022/03/20 12:04:09;;;;;;;;;;;;;;;;;;5037348;28;19909;-50
2022/03/20 12:06:34;;;;;;;;;;;;;;;;;;5037247;28;20452;-52
2022/03/20 12:08:59;;;;;;;;;;;;;;;;;;5037304;28;20004;-49
2022/03/20 12:11:26;;;;;;;;;;;;;;;;;;5037084;28;19909;-49
2022/03/20 12:13:51;;;;;;;;;;;;;;;;;;5036968;28;20385;-52
2022/03/20 12:16:16;;;;;;;;;;;;;;;;;;5037148;28;19932;-49
2022/03/20 12:18:41;;;;;;;;;;;;;;;;;;5037049;28;19913;-50
2022/03/20 12:21:07;;;;;;;;;;;;;;;;;;5036813;28;19909;-49
2022/03/20 12:23:32;;;;;;;;;;;;;;;;;;5036823;28;19913;-51
2022/03/20 12:25:57;;;;;;;;;;;;;;;;;;5035866;28;19919;-48
2022/03/20 12:28:22;;;;;;;;;;;;;;;;;;5036867;28;20003;-48
2022/03/20 12:30:47;;;;;;;;;;;;;;;;;;5036974;28;19995;-50
2022/03/20 12:33:12;;;;;;;;;;;;;;;;;;5036927;28;20008;-51
2022/03/20 12:35:37;;;;;;;;;;;;;;;;;;5036900;28;19909;-49
2022/03/20 12:38:02;;;;;;;;;;;;;;;;;;5037038;28;19909;-50
2022/03/20 12:40:28;;;;;;;;;;;;;;;;;;5036856;28;19913;-49
2022/03/20 12:42:54;;;;;;;;;;;;;;;;;;5036536;28;20056;-50
2022/03/20 12:45:19;;;;;;;;;;;;;;;;;;5035966;28;20381;-51
2022/03/20 12:47:44;;;;;;;;;;;;;;;;;;5036646;28;19910;-48
2022/03/20 12:50:09;;;;;;;;;;;;;;;;;;5043095;23;19925;-48
2022/03/20 12:52:35;;;;;;;;;;;;;;;;;;5036490;28;19909;-51
2022/03/20 12:55:00;;;;;;;;;;;;;;;;;;5036523;28;19909;-51
2022/03/20 12:57:25;;;;;;;;;;;;;;;;;;5051026;28;19921;-51
2022/03/20 12:59:50;;;;;;;;;;;;;;;;;;5036626;28;19910;-50
2022/03/20 13:02:15;;;;;;;;;;;;;;;;;;5036558;28;19912;-50
2022/03/20 13:04:45;;;;;;;;;;;;;;;;;;5036407;28;19913;-52
2022/03/20 13:07:10;;;;;;;;;;;;;;;;;;5036275;28;20283;-51
2022/03/20 13:09:35;;;;;;;;;;;;;;;;;;5036044;28;19909;-51
2022/03/20 13:12:00;;;;;;;;;;;;;;;;;;5036021;28;19909;-51
2022/03/20 13:14:26;;;;;;;;;;;;;;;;;;5036084;28;19913;-50
2022/03/20 13:16:51;;;;;;;;;;;;;;;;;;5036183;28;19917;-49
2022/03/20 13:19:16;;;;;;;;;;;;;;;;;;5035702;28;19920;-49
2022/03/20 13:21:41;;;;;;;;;;;;;;;;;;5035767;28;19960;-50
2022/03/20 13:24:06;;;;;;;;;;;;;;;;;;5035674;28;19940;-49
2022/03/20 13:26:31;;;;;;;;;;;;;;;;;;5035476;28;19971;-50
2022/03/20 13:28:59;;;;;;;;;;;;;;;;;;5035907;28;20349;-49
2022/03/20 13:31:24;;;;;;;;;;;;;;;;;;5035683;28;19944;-49
2022/03/20 13:33:52;;;;;;;;;;;;;;;;;;5035627;28;20287;-50
2022/03/20 13:36:17;;;;;;;;;;;;;;;;;;5035642;28;19916;-50
2022/03/20 13:38:45;;;;;;;;;;;;;;;;;;5035317;28;19913;-51
2022/03/20 13:41:10;;;;;;;;;;;;;;;;;;5035247;28;20027;-49
2022/03/20 13:43:36;;;;;;;;;;;;;;;;;;5035396;28;19998;-49
2022/03/20 13:46:01;;;;;;;;;;;;;;;;;;5035258;28;19917;-49
2022/03/20 13:48:27;;;;;;;;;;;;;;;;;;5035272;28;20331;-49
2022/03/20 13:50:55;;;;;;;;;;;;;;;;;;5034728;28;20396;-51
2022/03/20 13:53:20;;;;;;;;;;;;;;;;;;5035345;28;19988;-50
2022/03/20 13:55:45;;;;;;;;;;;;;;;;;;5050229;28;19960;-50
2022/03/20 13:58:10;;;;;;;;;;;;;;;;;;5034492;28;19944;-49
2022/03/20 14:00:35;;;;;;;;;;;;;;;;;;5035461;28;19956;-49
2022/03/20 14:03:02;;;;;;;;;;;;;;;;;;5031058;28;19913;-48
2022/03/20 14:05:27;;;;;;;;;;;;;;;;;;5015340;28;19913;-51
2022/03/20 14:07:52;;;;;;;;;;;;;;;;;;5016803;28;19960;-49
2022/03/20 14:10:17;;;;;;;;;;;;;;;;;;5035026;28;19906;-49
2022/03/20 14:12:42;;;;;;;;;;;;;;;;;;5034714;28;20383;-49
2022/03/20 14:15:09;;;;;;;;;;;;;;;;;;5034953;28;20299;-49
2022/03/20 14:17:34;;;;;;;;;;;;;;;;;;5035111;28;20006;-49
2022/03/20 14:19:59;;;;;;;;;;;;;;;;;;5034722;28;19917;-48
2022/03/20 14:22:24;;;;;;;;;;;;;;;;;;5034857;28;19909;-50
2022/03/20 14:24:58;;;;;;;;;;;;;;;;;;5034375;28;19913;-48
2022/03/20 14:27:23;;;;;;;;;;;;;;;;;;5033604;28;19919;-48
2022/03/20 14:40:47;;;;;;;;;;;;;;;;;;5034881;28;20414;-49
2022/03/20 14:43:12;;;;;;;;;;;;;;;;;;5034713;28;19916;-49
2022/03/20 14:45:39;;;;;;;;;;;;;;;;;;5034684;28;19913;-48
2022/03/20 14:48:04;;;;;;;;;;;;;;;;;;5034554;28;19917;-50
2022/03/20 14:50:29;;;;;;;;;;;;;;;;;;5034547;28;19922;-48
2022/03/20 14:52:57;;;;;;;;;;;;;;;;;;5050123;28;19909;-49
2022/03/20 14:55:22;;;;;;;;;;;;;;;;;;5034213;28;19909;-50
2022/03/20 14:57:47;;;;;;;;;;;;;;;;;;5031948;28;19920;-50
2022/03/20 15:00:12;;;;;;;;;;;;;;;;;;5034591;28;19909;-50
2022/03/20 15:02:37;;;;;;;;;;;;;;;;;;5033106;28;20371;-51
2022/03/20 15:05:02;;;;;;;;;;;;;;;;;;5014398;28;19937;-52
2022/03/20 15:07:28;;;;;;;;;;;;;;;;;;5014595;28;19914;-50
2022/03/20 15:12:37;;;;;;;;;;;;;;;;;;5018826;28;20387;-50
2022/03/20 15:15:03;;;;;;;;;;;;;;;;;;5018595;28;19952;-49
2022/03/20 15:17:31;;;;;;;;;;;;;;;;;;5018676;28;19955;-48
2022/03/20 15:19:56;;;;;;;;;;;;;;;;;;5018448;28;19945;-52
2022/03/20 15:22:21;;;;;;;;;;;;;;;;;;5018481;28;20379;-51
2022/03/20 15:24:47;;;;;;;;;;;;;;;;;;5018398;28;19920;-51
2022/03/20 15:27:13;;;;;;;;;;;;;;;;;;5034062;28;19992;-49
2022/03/20 15:29:38;;;;;;;;;;;;;;;;;;5046912;28;20371;-50
2022/03/20 15:32:04;;;;;;;;;;;;;;;;;;5057948;28;19909;-49
2022/03/20 15:34:29;;;;;;;;;;;;;;;;;;5057754;28;19974;-50
2022/03/20 15:36:54;;;;;;;;;;;;;;;;;;5057683;28;19934;-52
2022/03/20 15:39:20;;;;;;;;;;;;;;;;;;5057867;28;19912;-49
2022/03/20 15:41:45;;;;;;;;;;;;;;;;;;5057826;28;19909;-51
2022/03/20 15:44:10;;;;;;;;;;;;;;;;;;5057835;28;20074;-49
2022/03/20 15:46:35;;;;;;;;;;;;;;;;;;5057649;28;19912;-51
2022/03/20 15:49:00;;;;;;;;;;;;;;;;;;5056621;28;19947;-52
2022/03/20 15:51:25;;;;;;;;;;;;;;;;;;5057435;28;19920;-49
2022/03/20 15:53:50;;;;;;;;;;;;;;;;;;5057448;28;19908;-50
2022/03/20 15:56:16;;;;;;;;;;;;;;;;;;5045263;28;20352;-49
2022/03/20 15:58:41;;;;;;;;;;;;;;;;;;5037489;28;19992;-48
2022/03/20 16:01:06;;;;;;;;;;;;;;;;;;5037411;28;19944;-50
2022/03/20 16:03:31;;;;;;;;;;;;;;;;;;5029128;28;20000;-51
2022/03/20 16:05:56;;;;;;;;;;;;;;;;;;5017698;28;19913;-50
2022/03/20 16:08:21;;;;;;;;;;;;;;;;;;5017818;28;19913;-48
2022/03/20 16:10:47;;;;;;;;;;;;;;;;;;5017722;28;20352;-51
2022/03/20 16:13:12;;;;;;;;;;;;;;;;;;5017589;28;20288;-50
2022/03/20 16:15:37;;;;;;;;;;;;;;;;;;5017639;28;19909;-52
2022/03/20 16:18:02;;;;;;;;;;;;;;;;;;5017490;28;20254;-51
2022/03/20 16:20:27;;;;;;;;;;;;;;;;;;5016474;28;19910;-48
2022/03/20 16:28:31;;;;;;;;;;;;;;;;;;5036175;28;20013;-49
2022/03/20 16:30:56;;;;;;;;;;;;;;;;;;5036941;28;20024;-50
2022/03/20 16:33:21;;;;;;;;;;;;;;;;;;5036624;28;20385;-50
2022/03/20 16:35:46;;;;;;;;;;;;;;;;;;5036802;28;19944;-50
2022/03/20 16:38:11;;;;;;;;;;;;;;;;;;5037038;28;19909;-49
2022/03/20 16:40:37;;;;;;;;;;;;;;;;;;5036759;28;19963;-52
2022/03/20 16:43:02;;;;;;;;;;;;;;;;;;5036668;28;19909;-49
2022/03/20 16:45:27;;;;;;;;;;;;;;;;;;5036795;28;19921;-50
2022/03/20 16:47:52;;;;;;;;;;;;;;;;;;5036302;28;19913;-49
2022/03/20 16:50:19;;;;;;;;;;;;;;;;;;5036391;28;20289;-51
2022/03/20 16:52:46;;;;;;;;;;;;;;;;;;5036675;28;19913;-49
2022/03/20 16:55:11;;;;;;;;;;;;;;;;;;5036381;28;19910;-51
2022/03/20 16:57:36;;;;;;;;;;;;;;;;;;5035987;28;20052;-49
2022/03/20 17:00:01;;;;;;;;;;;;;;;;;;5036447;28;19913;-53
2022/03/20 17:02:26;;;;;;;;;;;;;;;;;;5036332;28;19909;-51
2022/03/20 17:04:51;;;;;;;;;;;;;;;;;;5016857;28;20027;-48
2022/03/20 17:07:17;;;;;;;;;;;;;;;;;;5016573;28;19917;-50
2022/03/20 17:09:42;;;;;;;;;;;;;;;;;;5016521;28;19910;-49
2022/03/20 17:12:07;;;;;;;;;;;;;;;;;;5016482;28;19910;-50
2022/03/20 17:14:32;;;;;;;;;;;;;;;;;;5016390;28;20300;-50
2022/03/20 17:16:57;;;;;;;;;;;;;;;;;;5016431;28;19910;-51
2022/03/20 17:19:26;;;;;;;;;;;;;;;;;;5028572;28;19913;-50
2022/03/20 17:21:51;;;;;;;;;;;;;;;;;;5036165;28;20000;-49
2022/03/20 17:24:16;;;;;;;;;;;;;;;;;;5036171;28;20367;-52
2022/03/20 17:26:41;;;;;;;;;;;;;;;;;;5034970;28;20272;-50
2022/03/20 17:29:06;;;;;;;;;;;;;;;;;;5035841;28;19913;-49